Aérodrome :
LOGIN :

S'inscrire | Disclaimer

   EN    FR    IT 

 










Légende :    VFR   VFR Marginal   IFR   IFR Intensif   IFR Très Intensif
Visi : 
Plafond : 
>= 8 km
>= 3000ft
5 à 8 km
1000 à 3000 ft
1500m à 5 km
500 à 1000 ft
800 à 1500m
200 à 500 ft
< 800m
< 200 ft
Symboles :   Orages  Brouillard  Fortes neiges  Fortes précipitations  Vent > 20 kt
SIGMETs :   Divers  Orages  Givrage  Turbulence  Onde Orograph.  Cendres Volcan.







- Altitude de l'aérodrome : 166 ft
- Code IATA : SZW


EDOP - Schwerin Parchim

DERNIER METAR :
  • 131250Z 17015KT CAVOK 03/M01 Q1002

METARs EXPIRÉS :
  • 131220Z 17013KT 130V200 CAVOK 03/M01 Q1003
  • 131150Z 17014KT CAVOK 02/M01 Q1004
  • 131120Z 17014KT CAVOK 02/M02 Q1004
  • 131050Z 17013KT 9999 FEW043 02/M02 Q1005
  • 131020Z 18014KT 9999 FEW037 02/M02 Q1006

TAF TAF EDOP
Valide du 13 à 12h jusqu'au 14 à 12h UTC


131100Z 1312/1412 17014KT CAVOK
TEMPO 1312/1321 18015G25KT
TEMPO 1315/1321 2500 SNRA BKN007
PROB30
TEMPO 1317/1321 1400 SN BKN003
TEMPO 1400/1405 4000 RASN BKN009
BECMG 1403/1406 23010KT
BECMG 1409/1412 25015G25KT
Pas de NOTAMs connus pour ce terrain.



MET'MAP, la Météo Aéronautique d'un coup d'oeil ! - Copyright ORBIFLY Décembre 2007 - Disclaimer

ORBIFLY MET'MAP TEAM :

Programmation & Développement : Alexandra Zaïnal
Conception & Développement : Baudouin d'Aumeries
Co-Programmation & Développement : Marc-Olivier Méhu
Soutien technique & logistique : Manuel Goepfert

Contact : metmap@orbifly.com




SOURCES & CREDITS :

   NOAA